Buffalo, Texas
Current Conditions -  °F | °C
As of 12:15 AM on Saturday 29 Nov 2014 (Local Time) from KLXY Reporting Station
Clear Clear  
Wind Chill: 58°   Ceiling: Unl
Heat Index: 58°   Visibility: 10mi
Dew Point: 51°   Wind: 14mph
Humidity: 77%   Direction: 190°S
Pressure: 30.04"   Gusts: NA
Location:  31.46°N, 96.06°W
Report Text: KLXY 290615Z AUTO 19012KT 10SM CLR 15/11 A3004 RMK AO2 T01450105
Loading
Personal Weather Stations






























Interactive Weather Map New forecast layout! Learn more

10-Day Weather Forecast

Advertisements
Track Severe Weather on mobile